createdAt,value
2018-07-04T00:01:46.890Z,99.90
2018-07-04T00:04:26.646Z,99.90
2018-07-04T00:07:06.509Z,99.90
2018-07-04T00:09:46.360Z,99.90
2018-07-04T00:12:26.258Z,99.90
2018-07-04T00:15:06.077Z,99.90
2018-07-04T00:17:45.902Z,99.90
2018-07-04T00:20:40.870Z,99.90
2018-07-04T00:23:20.752Z,99.90
2018-07-04T00:26:00.647Z,99.90
2018-07-04T00:28:40.304Z,99.90
2018-07-04T00:31:20.099Z,99.90
2018-07-04T00:33:59.900Z,99.90
2018-07-04T00:36:39.790Z,99.90
2018-07-04T00:39:19.615Z,99.90
2018-07-04T00:41:59.496Z,99.90
2018-07-04T00:44:39.214Z,99.90
2018-07-04T00:47:18.955Z,99.90
2018-07-04T00:49:58.756Z,99.90
2018-07-04T00:52:38.638Z,99.90
2018-07-04T00:55:18.518Z,99.90
2018-07-04T00:57:58.438Z,99.90
2018-07-04T01:00:38.221Z,99.90
2018-07-04T01:03:18.112Z,99.90
2018-07-04T01:05:57.987Z,99.90
2018-07-04T01:08:37.678Z,99.90
2018-07-04T01:11:17.439Z,99.90
2018-07-04T01:13:57.314Z,99.90
2018-07-04T01:16:37.007Z,99.90
2018-07-04T01:19:16.816Z,99.90
2018-07-04T01:21:56.704Z,99.90
2018-07-04T01:24:36.609Z,99.90
2018-07-04T01:27:16.481Z,99.90
2018-07-04T01:29:56.257Z,99.90
2018-07-04T01:32:36.069Z,99.90
2018-07-04T01:35:15.995Z,99.90
2018-07-04T01:37:55.794Z,99.90
2018-07-04T01:43:09.282Z,99.90
2018-07-04T01:45:49.131Z,99.90
2018-07-04T01:48:28.833Z,99.90
2018-07-04T01:51:08.692Z,99.90
2018-07-04T01:53:48.525Z,99.90
2018-07-04T01:56:28.257Z,99.90
2018-07-04T01:59:08.108Z,99.90
2018-07-04T02:01:47.931Z,99.90
2018-07-04T02:04:27.673Z,99.90
2018-07-04T02:07:07.875Z,99.90
2018-07-04T02:09:47.830Z,99.90
2018-07-04T02:12:27.697Z,99.90
2018-07-04T02:15:07.621Z,99.90
2018-07-04T02:17:47.461Z,99.90
2018-07-04T02:20:27.401Z,99.90
2018-07-04T02:25:41.065Z,99.90
2018-07-04T02:28:20.785Z,99.90
2018-07-04T02:31:00.662Z,99.90
2018-07-04T02:33:40.378Z,99.90
2018-07-04T02:36:20.174Z,99.90
2018-07-04T02:38:59.974Z,99.90
2018-07-04T02:41:39.789Z,99.90
2018-07-04T02:44:19.690Z,99.90
2018-07-04T02:46:59.471Z,99.90
2018-07-04T02:49:39.355Z,99.90
2018-07-04T02:52:19.166Z,99.90
2018-07-04T02:54:59.040Z,99.90
2018-07-04T02:57:38.791Z,99.90
2018-07-04T03:00:18.665Z,99.90
2018-07-04T03:02:58.443Z,99.90
2018-07-04T03:05:38.331Z,99.90
2018-07-04T03:08:18.130Z,99.90
2018-07-04T03:10:57.976Z,99.90
2018-07-04T03:13:37.873Z,99.90
2018-07-04T03:16:17.863Z,99.90
2018-07-04T03:18:57.626Z,99.90
2018-07-04T03:21:37.468Z,99.90
2018-07-04T03:24:17.338Z,99.90
2018-07-04T03:26:57.190Z,99.90
2018-07-04T03:32:10.834Z,99.90
2018-07-04T03:34:50.656Z,99.90
2018-07-04T03:37:30.478Z,99.90
2018-07-04T03:40:10.285Z,99.90
2018-07-04T03:42:50.042Z,99.90
2018-07-04T03:45:29.733Z,99.90
2018-07-04T03:48:09.530Z,99.90
2018-07-04T03:50:49.341Z,99.90
2018-07-04T03:56:03.087Z,99.90
2018-07-04T03:58:42.946Z,99.90
2018-07-04T04:01:22.776Z,99.90
2018-07-04T04:04:02.633Z,99.90
2018-07-04T04:06:42.458Z,99.90
2018-07-04T04:09:22.233Z,99.90
2018-07-04T04:12:02.042Z,99.90
2018-07-04T04:14:41.966Z,99.90
2018-07-04T04:19:55.714Z,99.90
2018-07-04T04:22:35.406Z,99.90
2018-07-04T04:25:15.265Z,99.90
2018-07-04T04:27:55.155Z,99.90
2018-07-04T04:30:35.040Z,99.90
2018-07-04T04:33:14.741Z,99.90
2018-07-04T04:35:54.698Z,99.90
2018-07-04T04:38:34.479Z,99.90
2018-07-04T04:41:14.343Z,99.90
2018-07-04T04:43:54.031Z,99.90
2018-07-04T04:46:33.849Z,99.90
2018-07-04T04:49:13.710Z,99.90
2018-07-04T04:51:53.530Z,99.90
2018-07-04T04:54:33.378Z,99.90
2018-07-04T04:57:13.224Z,99.90
2018-07-04T04:59:53.019Z,99.90
2018-07-04T05:02:32.798Z,99.90
2018-07-04T05:05:12.659Z,99.90
2018-07-04T05:07:52.558Z,99.90
2018-07-04T05:10:32.372Z,99.90
2018-07-04T05:13:12.274Z,99.90
2018-07-04T05:15:52.097Z,99.90
2018-07-04T05:18:31.917Z,99.90
2018-07-04T05:21:11.866Z,99.90
2018-07-04T05:23:51.610Z,99.90
2018-07-04T05:26:31.353Z,99.90
2018-07-04T05:29:11.493Z,99.90
2018-07-04T05:31:51.195Z,99.90
2018-07-04T05:34:30.994Z,99.90
2018-07-04T05:37:10.958Z,99.90
2018-07-04T05:39:50.665Z,99.90
2018-07-04T05:42:30.534Z,99.90
2018-07-04T05:45:10.341Z,99.90
2018-07-04T05:47:50.189Z,99.90
2018-07-04T05:50:30.026Z,99.90
2018-07-04T05:53:09.834Z,99.90
2018-07-04T05:55:49.562Z,99.90
2018-07-04T05:58:29.961Z,99.90
2018-07-04T06:01:09.866Z,99.90
2018-07-04T06:03:49.741Z,99.90
2018-07-04T06:06:29.661Z,99.90
2018-07-04T06:09:09.553Z,99.90
2018-07-04T06:11:49.234Z,99.90
2018-07-04T06:14:28.961Z,99.90
2018-07-04T06:19:42.536Z,99.90
2018-07-04T06:22:22.230Z,99.90
2018-07-04T06:25:02.076Z,99.90
2018-07-04T06:27:41.902Z,99.90
2018-07-04T06:30:21.677Z,99.90
2018-07-04T06:33:01.514Z,99.90
2018-07-04T06:35:41.326Z,99.90
2018-07-04T06:38:08.817Z,99.90
2018-07-04T06:40:36.300Z,99.90
2018-07-04T06:45:31.494Z,99.90
2018-07-04T06:47:58.949Z,99.90
2018-07-04T06:50:26.460Z,99.90
2018-07-04T06:52:53.934Z,99.90
2018-07-04T06:55:21.379Z,99.90
2018-07-04T06:57:48.876Z,99.90
2018-07-04T07:00:16.365Z,99.90
2018-07-04T07:02:43.828Z,99.90
2018-07-04T07:05:23.498Z,99.90
2018-07-04T07:08:03.338Z,99.90
2018-07-04T07:10:43.154Z,99.90
2018-07-04T07:13:23.320Z,99.90
2018-07-04T07:16:03.087Z,99.90
2018-07-04T07:18:42.852Z,99.90
2018-07-04T07:21:22.546Z,99.90
2018-07-04T07:24:02.342Z,99.90
2018-07-04T07:26:42.122Z,99.90
2018-07-04T07:29:21.961Z,99.90
2018-07-04T07:32:01.678Z,99.90
2018-07-04T07:34:41.274Z,99.90
2018-07-04T07:37:21.106Z,99.90
2018-07-04T07:40:00.974Z,99.90
2018-07-04T07:42:40.795Z,99.90
2018-07-04T07:45:20.538Z,99.90
2018-07-04T07:48:00.362Z,99.90
2018-07-04T07:50:40.125Z,99.90
2018-07-04T07:53:19.929Z,99.90
2018-07-04T07:55:59.582Z,99.90
2018-07-04T07:58:39.347Z,99.90
2018-07-04T08:01:19.150Z,99.90
2018-07-04T08:03:58.978Z,99.90
2018-07-04T08:06:38.734Z,99.90
2018-07-04T08:09:18.610Z,99.90
2018-07-04T08:11:58.244Z,99.90
2018-07-04T08:14:38.210Z,99.90
2018-07-04T08:17:18.116Z,99.90
2018-07-04T08:19:57.791Z,99.90
2018-07-04T08:22:37.527Z,99.90
2018-07-04T08:25:17.362Z,99.90
2018-07-04T08:27:57.330Z,99.90
2018-07-04T08:30:37.258Z,99.90
2018-07-04T08:33:17.093Z,99.90
2018-07-04T08:35:56.873Z,99.90
2018-07-04T08:38:36.711Z,99.90
2018-07-04T08:41:16.563Z,99.90
2018-07-04T08:43:56.366Z,99.90
2018-07-04T08:46:36.082Z,99.90
2018-07-04T08:49:15.913Z,99.90
2018-07-04T08:51:55.649Z,99.90
2018-07-04T08:54:35.358Z,99.90
2018-07-04T08:57:15.090Z,99.90
2018-07-04T08:59:54.863Z,99.90
2018-07-04T09:02:34.770Z,99.90
2018-07-04T09:05:14.634Z,99.90
2018-07-04T09:07:54.397Z,99.90
2018-07-04T09:10:34.190Z,99.90
2018-07-04T09:13:13.905Z,99.90
2018-07-04T09:15:53.672Z,99.90
2018-07-04T09:18:33.421Z,99.90
2018-07-04T09:21:13.260Z,99.90
2018-07-04T09:23:53.011Z,99.90
2018-07-04T09:26:32.830Z,99.90
2018-07-04T09:29:12.578Z,99.90
2018-07-04T09:31:52.324Z,99.90
2018-07-04T09:34:32.059Z,99.90
2018-07-04T09:37:11.838Z,99.90
2018-07-04T09:39:51.425Z,99.90
2018-07-04T09:42:31.752Z,99.90
2018-07-04T09:45:11.489Z,99.90
2018-07-04T09:47:51.233Z,99.90
2018-07-04T09:50:31.149Z,99.90
2018-07-04T09:53:10.899Z,99.90
2018-07-04T09:58:24.559Z,99.90
2018-07-04T10:01:09.825Z,99.90
2018-07-04T10:03:49.668Z,99.90
2018-07-04T10:06:29.374Z,99.90
2018-07-04T10:09:09.155Z,99.90
2018-07-04T10:11:48.962Z,99.90
2018-07-04T10:14:28.786Z,99.90
2018-07-04T10:17:08.486Z,99.90
2018-07-04T10:19:48.373Z,99.90
2018-07-04T10:22:28.156Z,99.90
2018-07-04T10:25:08.036Z,99.90
2018-07-04T10:27:47.801Z,99.90
2018-07-04T10:30:27.666Z,99.90
2018-07-04T10:33:07.482Z,99.90
2018-07-04T10:35:47.142Z,99.90
2018-07-04T10:38:27.034Z,99.90
2018-07-04T10:41:06.719Z,99.90
2018-07-04T10:43:46.607Z,99.90
2018-07-04T10:46:26.314Z,99.90
2018-07-04T10:49:06.158Z,99.90
2018-07-04T10:51:45.892Z,99.90
2018-07-04T10:54:25.690Z,99.90
2018-07-04T10:57:05.617Z,99.90
2018-07-04T10:59:45.382Z,99.90
2018-07-04T11:02:25.166Z,99.90
2018-07-04T11:05:04.941Z,99.90
2018-07-04T11:07:44.799Z,99.90
2018-07-04T11:10:24.626Z,99.90
2018-07-04T11:13:04.489Z,99.90
2018-07-04T11:15:44.318Z,99.90
2018-07-04T11:18:24.050Z,99.90
2018-07-04T11:21:03.915Z,99.90
2018-07-04T11:23:43.753Z,99.90
2018-07-04T11:26:23.577Z,99.90
2018-07-04T11:29:03.497Z,99.90
2018-07-04T11:31:43.225Z,99.90
2018-07-04T11:34:22.967Z,99.90
2018-07-04T11:37:02.912Z,99.90
2018-07-04T11:39:42.710Z,99.90
2018-07-04T11:42:22.407Z,99.90
2018-07-04T11:45:02.258Z,99.90
2018-07-04T11:47:29.809Z,99.90
2018-07-04T11:49:57.264Z,99.90
2018-07-04T11:52:24.733Z,99.90
2018-07-04T11:54:52.194Z,99.90
2018-07-04T11:57:19.665Z,99.90
2018-07-04T11:59:47.122Z,99.90
2018-07-04T12:02:14.806Z,99.90
2018-07-04T12:04:54.638Z,99.90
2018-07-04T12:07:22.105Z,99.90
2018-07-04T12:12:17.280Z,99.90
2018-07-04T12:14:44.734Z,99.90
2018-07-04T12:17:12.226Z,99.90
2018-07-04T12:19:39.729Z,99.90
2018-07-04T12:22:07.223Z,99.90
2018-07-04T12:27:02.455Z,99.90
2018-07-04T12:29:29.930Z,99.90
2018-07-04T12:31:57.471Z,99.90
2018-07-04T12:34:24.953Z,99.90
2018-07-04T12:36:52.442Z,99.90
2018-07-04T12:39:20.711Z,99.90
2018-07-04T12:41:49.561Z,99.90
2018-07-04T12:44:17.077Z,99.90
2018-07-04T12:46:44.562Z,99.90
2018-07-04T12:51:39.773Z,99.90
2018-07-04T12:54:12.613Z,99.90
2018-07-04T12:59:26.368Z,99.90
2018-07-04T13:02:06.093Z,99.90
2018-07-04T13:04:45.934Z,99.90
2018-07-04T13:07:26.103Z,99.90
2018-07-04T13:10:05.713Z,99.90
2018-07-04T13:15:19.343Z,99.90
2018-07-04T13:17:59.207Z,99.90
2018-07-04T13:20:39.062Z,99.90
2018-07-04T13:23:18.799Z,99.90
2018-07-04T13:25:58.737Z,99.90
2018-07-04T13:28:38.449Z,99.90
2018-07-04T13:31:18.324Z,99.90
2018-07-04T13:33:58.039Z,99.90
2018-07-04T13:36:37.886Z,99.90
2018-07-04T13:39:17.701Z,99.90
2018-07-04T13:41:57.519Z,98.40
2018-07-04T13:44:37.270Z,98.70
2018-07-04T13:47:17.080Z,96.90
2018-07-04T13:49:56.766Z,97.70
2018-07-04T13:52:36.609Z,96.60
2018-07-04T13:55:16.316Z,97.40
2018-07-04T13:57:56.142Z,95.30
2018-07-04T14:00:35.923Z,96.50
2018-07-04T14:03:15.754Z,96.90
2018-07-04T14:05:55.429Z,95.60
2018-07-04T14:11:09.083Z,96.30
2018-07-04T14:13:48.850Z,93.30
2018-07-04T14:16:28.542Z,94.90
2018-07-04T14:19:08.435Z,92.30
2018-07-04T14:21:48.114Z,93.20
2018-07-04T14:24:27.957Z,88.60
2018-07-04T14:27:07.714Z,90.70
2018-07-04T14:29:47.539Z,92.10
2018-07-04T14:32:27.356Z,94.40
2018-07-04T14:35:07.213Z,94.80
2018-07-04T14:37:46.959Z,95.00
2018-07-04T14:40:26.653Z,95.50
2018-07-04T14:43:06.450Z,95.60
2018-07-04T14:45:46.352Z,96.40
2018-07-04T14:48:25.946Z,95.50
2018-07-04T14:51:05.787Z,95.30
2018-07-04T14:53:45.554Z,95.20
2018-07-04T14:56:25.442Z,96.70
2018-07-04T14:59:05.162Z,94.30
2018-07-04T15:01:45.030Z,94.80
2018-07-04T15:04:24.864Z,93.80
2018-07-04T15:07:04.750Z,93.30
2018-07-04T15:09:44.647Z,92.80
2018-07-04T15:12:24.487Z,93.10
2018-07-04T15:15:04.287Z,92.60
2018-07-04T15:17:44.039Z,92.40
2018-07-04T15:20:23.939Z,92.20
2018-07-04T15:23:03.583Z,91.30
2018-07-04T15:25:43.287Z,90.20
2018-07-04T15:28:23.061Z,88.20
2018-07-04T15:31:02.747Z,86.50
2018-07-04T15:33:42.501Z,85.40
2018-07-04T15:36:22.194Z,88.70
2018-07-04T15:39:02.032Z,88.10
2018-07-04T15:41:41.907Z,87.90
2018-07-04T15:44:21.624Z,87.50
2018-07-04T15:47:01.428Z,89.10
2018-07-04T15:49:46.369Z,88.40
2018-07-04T15:52:26.126Z,88.90
2018-07-04T15:55:05.883Z,89.70
2018-07-04T15:57:45.685Z,90.60
2018-07-04T16:00:25.474Z,91.90
2018-07-04T16:03:05.329Z,92.30
2018-07-04T16:05:45.320Z,93.70
2018-07-04T16:08:24.990Z,95.40
2018-07-04T16:11:04.666Z,96.80
2018-07-04T16:13:44.445Z,98.10
2018-07-04T16:16:24.493Z,99.50
2018-07-04T16:19:04.287Z,99.90
2018-07-04T16:21:44.126Z,99.90
2018-07-04T16:24:23.841Z,99.90
2018-07-04T16:27:03.606Z,99.90
2018-07-04T16:29:43.476Z,99.90
2018-07-04T16:32:23.231Z,99.90
2018-07-04T16:37:36.676Z,99.90
2018-07-04T16:40:16.477Z,99.90
2018-07-04T16:42:56.165Z,99.90
2018-07-04T16:45:35.937Z,99.90
2018-07-04T16:48:15.867Z,99.90
2018-07-04T16:50:55.551Z,99.90
2018-07-04T16:53:35.326Z,99.90
2018-07-04T16:56:15.184Z,99.00
2018-07-04T16:58:55.032Z,98.70
2018-07-04T17:01:34.742Z,98.20
2018-07-04T17:04:14.520Z,98.00
2018-07-04T17:06:54.328Z,97.30
2018-07-04T17:09:34.201Z,97.30
2018-07-04T17:12:14.000Z,96.40
2018-07-04T17:14:53.830Z,98.30
2018-07-04T17:17:33.702Z,94.30
2018-07-04T17:20:13.479Z,94.60
2018-07-04T17:22:53.454Z,98.20
2018-07-04T17:25:33.302Z,93.30
2018-07-04T17:28:13.016Z,95.20
2018-07-04T17:30:52.846Z,94.40
2018-07-04T17:33:32.678Z,94.00
2018-07-04T17:36:12.346Z,95.70
2018-07-04T17:38:52.262Z,95.50
2018-07-04T17:41:32.134Z,95.70
2018-07-04T17:44:11.717Z,99.00
2018-07-04T17:46:51.430Z,97.80
2018-07-04T17:49:31.202Z,99.20
2018-07-04T17:52:11.299Z,98.40
2018-07-04T17:54:51.072Z,99.90
2018-07-04T17:57:30.852Z,99.90
2018-07-04T18:00:10.638Z,99.90
2018-07-04T18:02:50.299Z,99.90
2018-07-04T18:05:30.382Z,99.90
2018-07-04T18:08:10.174Z,99.90
2018-07-04T18:10:49.889Z,99.90
2018-07-04T18:13:29.521Z,99.90
2018-07-04T18:16:10.082Z,99.90
2018-07-04T18:18:50.030Z,99.90
2018-07-04T18:21:29.916Z,99.90
2018-07-04T18:24:09.688Z,99.90
2018-07-04T18:26:49.548Z,99.90
2018-07-04T18:29:29.222Z,99.90
2018-07-04T18:32:09.074Z,99.90
2018-07-04T18:34:48.979Z,99.90
2018-07-04T18:37:28.799Z,99.90
2018-07-04T18:40:08.390Z,99.90
2018-07-04T18:42:48.214Z,99.90
2018-07-04T18:45:28.033Z,99.90
2018-07-04T18:48:07.794Z,99.90
2018-07-04T18:50:47.424Z,99.90
2018-07-04T18:53:27.116Z,99.90
2018-07-04T18:56:06.780Z,99.90
2018-07-04T18:58:46.545Z,99.90
2018-07-04T19:01:26.265Z,99.90
2018-07-04T19:04:06.200Z,99.90
2018-07-04T19:06:46.038Z,99.90
2018-07-04T19:09:25.876Z,99.90
2018-07-04T19:12:05.726Z,99.90
2018-07-04T19:14:45.465Z,99.90
2018-07-04T19:17:25.366Z,99.90
2018-07-04T19:20:05.174Z,99.90
2018-07-04T19:22:44.769Z,99.90
2018-07-04T19:25:24.610Z,99.90
2018-07-04T19:28:04.290Z,99.90
2018-07-04T19:30:43.904Z,99.90
2018-07-04T19:33:23.703Z,99.90
2018-07-04T19:36:03.460Z,99.90
2018-07-04T19:38:43.155Z,99.90
2018-07-04T19:41:23.111Z,99.90
2018-07-04T19:44:02.950Z,99.90
2018-07-04T19:46:42.763Z,99.90
2018-07-04T19:49:22.427Z,99.90
2018-07-04T19:52:02.235Z,99.90
2018-07-04T19:54:41.946Z,99.90
2018-07-04T19:57:21.638Z,99.90
2018-07-04T20:00:01.269Z,99.90
2018-07-04T20:02:40.904Z,99.90
2018-07-04T20:05:20.687Z,99.90
2018-07-04T20:08:00.414Z,99.90
2018-07-04T20:10:40.331Z,99.90
2018-07-04T20:13:20.249Z,99.90
2018-07-04T20:16:00.616Z,99.90
2018-07-04T20:18:40.464Z,99.90
2018-07-04T20:21:20.433Z,99.90
2018-07-04T20:24:00.261Z,99.90
2018-07-04T20:26:40.075Z,99.90
2018-07-04T20:29:20.013Z,99.90
2018-07-04T20:31:59.810Z,99.90
2018-07-04T20:34:39.615Z,99.90
2018-07-04T20:37:19.275Z,99.90
2018-07-04T20:39:59.080Z,99.90
2018-07-04T20:42:38.757Z,99.90
2018-07-04T20:45:18.731Z,99.90
2018-07-04T20:47:58.444Z,99.90
2018-07-04T20:50:38.228Z,99.90
2018-07-04T20:53:18.140Z,99.90
2018-07-04T20:55:57.986Z,99.90
2018-07-04T20:58:37.760Z,99.90
2018-07-04T21:01:17.525Z,99.90
2018-07-04T21:03:57.489Z,99.90
2018-07-04T21:09:10.849Z,99.90
2018-07-04T21:11:50.642Z,99.90
2018-07-04T21:14:30.306Z,99.90
2018-07-04T21:17:10.163Z,99.90
2018-07-04T21:19:50.108Z,99.90
2018-07-04T21:22:30.021Z,99.90
2018-07-04T21:25:09.878Z,99.90
2018-07-04T21:27:49.643Z,99.90
2018-07-04T21:30:29.427Z,99.90
2018-07-04T21:35:42.755Z,99.90
2018-07-04T21:40:56.282Z,99.90
2018-07-04T21:43:36.236Z,99.90
2018-07-04T21:46:16.038Z,99.90
2018-07-04T21:48:55.836Z,99.90
2018-07-04T21:51:35.690Z,99.90
2018-07-04T21:56:49.202Z,99.90
2018-07-04T21:59:28.985Z,99.90
2018-07-04T22:02:08.713Z,99.90
2018-07-04T22:04:48.542Z,99.90
2018-07-04T22:07:28.367Z,99.90
2018-07-04T22:10:08.123Z,99.90
2018-07-04T22:12:47.954Z,99.90
2018-07-04T22:15:27.843Z,99.90
2018-07-04T22:18:07.717Z,99.90
2018-07-04T22:20:47.621Z,99.90
2018-07-04T22:23:27.486Z,99.90
2018-07-04T22:26:07.282Z,99.90
2018-07-04T22:28:47.114Z,99.90
2018-07-04T22:31:26.782Z,99.90
2018-07-04T22:34:06.594Z,99.90
2018-07-04T22:36:46.454Z,99.90
2018-07-04T22:39:26.349Z,99.90
2018-07-04T22:42:06.173Z,99.90
2018-07-04T22:44:46.010Z,99.90
2018-07-04T22:47:25.755Z,99.90
2018-07-04T22:50:05.649Z,99.90
2018-07-04T22:52:45.467Z,99.90
2018-07-04T22:55:25.277Z,99.90
2018-07-04T22:58:05.253Z,99.90
2018-07-04T23:00:45.245Z,99.90
2018-07-04T23:03:25.103Z,99.90
2018-07-04T23:06:04.907Z,99.90
2018-07-04T23:08:44.885Z,99.90
2018-07-04T23:11:24.818Z,99.90
2018-07-04T23:14:04.626Z,99.90
2018-07-04T23:16:44.521Z,99.90
2018-07-04T23:19:24.317Z,99.90
2018-07-04T23:22:04.063Z,99.90
2018-07-04T23:24:43.840Z,99.90
2018-07-04T23:27:23.613Z,99.90
2018-07-04T23:30:03.438Z,99.90
2018-07-04T23:32:43.306Z,99.90
2018-07-04T23:35:23.056Z,99.90
2018-07-04T23:38:02.957Z,99.90
2018-07-04T23:40:42.870Z,99.90
2018-07-04T23:43:22.642Z,99.90
2018-07-04T23:46:02.310Z,99.90
2018-07-04T23:48:42.229Z,99.90
2018-07-04T23:51:22.013Z,99.90
2018-07-04T23:54:01.909Z,99.90
2018-07-04T23:56:41.727Z,99.90
2018-07-04T23:59:21.453Z,99.90
